Time;durP1;ratioP1;P1;durP2;ratioP2;P2;SDS_P1;SDS_P2;PMS_P1;PMS_P2;Temp;Humidity;BMP_temperature;BMP_pressure;BME280_temperature;BME280_humidity;BME280_pressure;Samples;Min_cycle;Max_cycle;Signal;HPM_P1;HPM_P2
2021/03/21 00:00:42;;;;;;;;;;;;;;;2.11;100.00;100904.34;5073087;28;19929;-67
2021/03/21 00:03:08;;;;;;;;;;;;;;;2.12;100.00;100906.06;5072947;28;19924;-67
2021/03/21 00:05:33;;;;;;;;;;;;;;;2.12;100.00;100898.03;5073129;28;19924;-66
2021/03/21 00:08:01;;;;;;;;;;;;;;;2.12;100.00;100892.69;5072509;28;19931;-67
2021/03/21 00:10:28;;;;;;;;;;;;;;;2.13;100.00;100894.44;5072790;28;20420;-67
2021/03/21 00:12:55;;;;;;;;;;;;;;;2.13;100.00;100889.06;5055044;28;20017;-67
2021/03/21 00:15:21;;;;;;;;;;;;;;;2.16;100.00;100883.59;5072538;28;19958;-67
2021/03/21 00:17:47;;;;;;;;;;;;;;;2.15;100.00;100880.97;5072721;28;19924;-67
2021/03/21 00:20:14;;;;;;;;;;;;;;;2.14;100.00;100877.41;5072226;28;19924;-66
2021/03/21 00:22:39;;;;;;;;;;;;;;;2.17;100.00;100879.97;5072410;28;19924;-66
2021/03/21 00:25:07;;;;;;;;;;;;;;;2.14;100.00;100869.38;5072343;28;19977;-66
2021/03/21 00:27:33;;;;;;;;;;;;;;;2.13;100.00;100864.97;5054716;28;19950;-66
2021/03/21 00:29:59;;;;;;;;;;;;;;;2.16;100.00;100859.50;5071721;28;19928;-66
2021/03/21 00:32:25;;;;;;;;;;;;;;;2.13;100.00;100848.03;5072204;28;19928;-66
2021/03/21 00:34:51;;;;;;;;;;;;;;;2.12;100.00;100851.63;5072292;28;19931;-66
2021/03/21 00:37:17;;;;;;;;;;;;;;;2.08;100.00;100853.56;5054543;28;19924;-66
2021/03/21 00:39:43;;;;;;;;;;;;;;;2.04;100.00;100846.63;5071734;28;19925;-66
2021/03/21 00:42:10;;;;;;;;;;;;;;;1.99;100.00;100837.91;5071312;28;20011;-66
2021/03/21 00:44:35;;;;;;;;;;;;;;;2.00;100.00;100834.31;5054153;28;19925;-66
2021/03/21 00:47:01;;;;;;;;;;;;;;;1.94;100.00;100822.06;5072091;28;19955;-66
2021/03/21 00:49:27;;;;;;;;;;;;;;;1.94;100.00;100829.22;5071147;28;19946;-66
2021/03/21 00:51:53;;;;;;;;;;;;;;;1.92;100.00;100821.25;5072100;28;20393;-66
2021/03/21 00:54:19;;;;;;;;;;;;;;;1.93;100.00;100811.41;5071938;28;19964;-66
2021/03/21 00:56:45;;;;;;;;;;;;;;;1.94;100.00;100811.34;5054071;28;20397;-66
2021/03/21 00:59:12;;;;;;;;;;;;;;;1.95;100.00;100806.84;5071501;28;19928;-66
2021/03/21 01:01:38;;;;;;;;;;;;;;;1.95;100.00;100793.47;5071858;28;19924;-66
2021/03/21 01:04:04;;;;;;;;;;;;;;;1.95;100.00;100796.13;5037202;28;19950;-66
2021/03/21 01:06:30;;;;;;;;;;;;;;;1.94;100.00;100784.56;5071530;28;19928;-66
2021/03/21 01:08:57;;;;;;;;;;;;;;;1.96;100.00;100781.81;5070664;28;19932;-66
2021/03/21 01:11:24;;;;;;;;;;;;;;;1.95;100.00;100783.66;5071779;28;19924;-66
2021/03/21 01:13:50;;;;;;;;;;;;;;;1.93;100.00;100774.78;5071695;28;19928;-66
2021/03/21 01:16:18;;;;;;;;;;;;;;;1.93;100.00;100765.91;5071776;28;20340;-67
2021/03/21 01:19:03;;;;;;;;;;;;;;;1.89;100.00;100758.94;5071350;28;19981;-66
2021/03/21 01:21:49;;;;;;;;;;;;;;;1.87;100.00;100760.81;5071776;28;19977;-66
2021/03/21 01:24:16;;;;;;;;;;;;;;;1.87;100.00;100759.03;5071182;28;19924;-66
2021/03/21 01:26:42;;;;;;;;;;;;;;;1.86;100.00;100749.25;5053404;28;19930;-66
2021/03/21 01:29:08;;;;;;;;;;;;;;;1.86;100.00;100751.03;5071093;28;19928;-66
2021/03/21 01:31:35;;;;;;;;;;;;;;;1.83;100.00;100741.34;5071409;28;20024;-67
2021/03/21 01:34:01;;;;;;;;;;;;;;;1.81;100.00;100730.69;5071111;28;19924;-66
2021/03/21 01:36:28;;;;;;;;;;;;;;;1.76;100.00;100740.72;5071473;28;19925;-66
2021/03/21 01:38:55;;;;;;;;;;;;;;;1.77;100.00;100730.91;5070954;28;19925;-66
2021/03/21 01:41:23;;;;;;;;;;;;;;;1.74;100.00;100726.56;5071257;28;20378;-66
2021/03/21 01:43:49;;;;;;;;;;;;;;;1.76;100.00;100723.81;5070858;28;19924;-66
2021/03/21 01:46:16;;;;;;;;;;;;;;;1.74;100.00;100731.03;5070784;28;20012;-66
2021/03/21 01:48:45;;;;;;;;;;;;;;;1.73;100.00;100719.47;5071165;28;19932;-66
2021/03/21 01:51:12;;;;;;;;;;;;;;;1.73;100.00;100715.94;5071083;28;20001;-66
2021/03/21 01:53:40;;;;;;;;;;;;;;;1.73;100.00;100715.94;5053049;28;19970;-66
2021/03/21 01:56:06;;;;;;;;;;;;;;;1.74;100.00;100710.50;5070735;28;20415;-66
2021/03/21 01:58:33;;;;;;;;;;;;;;;1.70;100.00;100711.59;5070980;28;20389;-66
2021/03/21 02:01:00;;;;;;;;;;;;;;;1.67;100.00;100698.31;5070865;28;19925;-66
2021/03/21 02:03:26;;;;;;;;;;;;;;;1.62;100.00;100705.72;5070746;28;20037;-66
2021/03/21 02:05:59;;;;;;;;;;;;;;;1.60;100.00;100691.50;5070809;28;19939;-66
2021/03/21 02:08:29;;;;;;;;;;;;;;;1.57;100.00;100688.97;5070956;28;19925;-65
2021/03/21 02:11:00;;;;;;;;;;;;;;;1.56;100.00;100679.22;5071004;28;19978;-65
2021/03/21 02:13:27;;;;;;;;;;;;;;;1.54;100.00;100684.63;5071052;28;19954;-66
2021/03/21 02:15:59;;;;;;;;;;;;;;;1.50;100.00;100670.50;5070884;28;19959;-66
2021/03/21 02:18:28;;;;;;;;;;;;;;;1.52;100.00;100664.22;5070682;28;19978;-66
2021/03/21 02:21:08;;;;;;;;;;;;;;;1.53;100.00;100669.50;5070306;28;19979;-66
2021/03/21 02:23:51;;;;;;;;;;;;;;;1.57;100.00;100664.91;5070711;28;19932;-67
2021/03/21 02:26:38;;;;;;;;;;;;;;;1.57;100.00;100660.41;5071043;28;19956;-66
2021/03/21 02:29:21;;;;;;;;;;;;;;;1.57;100.00;100659.53;5070301;28;19979;-66
2021/03/21 02:31:50;;;;;;;;;;;;;;;1.59;100.00;100660.34;5070584;28;20002;-67
2021/03/21 02:34:21;;;;;;;;;;;;;;;1.60;100.00;100648.69;5070656;28;20400;-67
2021/03/21 02:36:49;;;;;;;;;;;;;;;1.62;100.00;100652.19;5070845;28;19925;-66
2021/03/21 02:39:19;;;;;;;;;;;;;;;1.61;100.00;100647.78;5070148;28;19928;-66
2021/03/21 02:41:47;;;;;;;;;;;;;;;1.60;100.00;100633.50;5052860;28;19931;-66
2021/03/21 02:44:16;;;;;;;;;;;;;;;1.62;100.00;100634.31;5070848;28;20406;-66
2021/03/21 02:46:44;;;;;;;;;;;;;;;1.61;100.00;100624.53;5070803;28;19947;-66
2021/03/21 02:49:13;;;;;;;;;;;;;;;1.63;100.00;100619.13;5052571;28;19940;-66
2021/03/21 02:51:41;;;;;;;;;;;;;;;1.65;100.00;100611.91;5070265;28;19932;-66
2021/03/21 02:54:10;;;;;;;;;;;;;;;1.64;100.00;100619.06;5070503;28;19932;-66
2021/03/21 02:56:37;;;;;;;;;;;;;;;1.67;100.00;100612.69;5070410;28;19931;-66
2021/03/21 02:59:05;;;;;;;;;;;;;;;1.68;100.00;100606.41;5070130;28;19924;-66
2021/03/21 03:01:33;;;;;;;;;;;;;;;1.68;100.00;100601.03;5070247;28;19929;-67
2021/03/21 03:04:01;;;;;;;;;;;;;;;1.70;100.00;100600.97;5070430;28;20393;-67
2021/03/21 03:06:30;;;;;;;;;;;;;;;1.72;100.00;100605.31;5072220;28;19925;-66
2021/03/21 03:08:59;;;;;;;;;;;;;;;1.72;100.00;100597.28;5073632;28;19975;-66
2021/03/21 03:11:31;;;;;;;;;;;;;;;1.75;100.00;100598.94;5073268;28;20170;-66
2021/03/21 03:14:00;;;;;;;;;;;;;;;1.75;100.00;100589.13;5073669;28;19929;-66
2021/03/21 03:16:27;;;;;;;;;;;;;;;1.76;100.00;100580.13;5073944;28;19924;-66
2021/03/21 03:18:58;;;;;;;;;;;;;;;1.80;100.00;100587.13;5073533;28;19925;-66
2021/03/21 03:21:29;;;;;;;;;;;;;;;1.80;100.00;100576.41;5068817;28;19924;-67
2021/03/21 03:23:58;;;;;;;;;;;;;;;1.82;100.00;100569.16;5073659;28;20490;-66
2021/03/21 03:26:27;;;;;;;;;;;;;;;1.83;100.00;100565.53;5069186;28;19982;-66
2021/03/21 03:28:58;;;;;;;;;;;;;;;1.86;100.00;100556.50;5072693;28;19947;-66
2021/03/21 03:31:26;;;;;;;;;;;;;;;1.90;100.00;100559.88;5073542;28;19964;-66
2021/03/21 03:33:53;;;;;;;;;;;;;;;1.93;100.00;100544.53;5073539;28;20281;-67
2021/03/21 03:36:19;;;;;;;;;;;;;;;1.94;100.00;100548.13;5073568;28;20352;-67
2021/03/21 03:38:46;;;;;;;;;;;;;;;1.96;100.00;100549.75;5073353;28;20275;-67
2021/03/21 03:41:19;;;;;;;;;;;;;;;1.97;100.00;100547.94;5073174;28;20382;-67
2021/03/21 03:43:54;;;;;;;;;;;;;;;1.99;100.00;100538.00;5073273;28;19932;-66
2021/03/21 03:46:23;;;;;;;;;;;;;;;2.02;100.00;100535.22;5072873;28;20002;-67
2021/03/21 03:48:54;;;;;;;;;;;;;;;2.05;100.00;100539.56;5072962;28;19931;-67
2021/03/21 03:51:27;;;;;;;;;;;;;;;2.07;100.00;100525.16;5073134;28;19978;-66
2021/03/21 03:54:00;;;;;;;;;;;;;;;2.10;100.00;100516.97;5072552;28;20001;-66
2021/03/21 03:56:31;;;;;;;;;;;;;;;2.12;100.00;100506.16;5073135;28;20304;-67
2021/03/21 03:59:04;;;;;;;;;;;;;;;2.16;100.00;100513.09;5072784;28;19924;-67
2021/03/21 04:01:33;;;;;;;;;;;;;;;2.20;100.00;100508.47;5073048;28;19924;-67
2021/03/21 04:04:06;;;;;;;;;;;;;;;2.23;100.00;100493.13;5072174;28;19936;-66
2021/03/21 04:06:35;;;;;;;;;;;;;;;2.28;100.00;100488.38;5055198;28;19924;-66
2021/03/21 04:09:07;;;;;;;;;;;;;;;2.31;100.00;100487.34;5054487;28;20348;-66
2021/03/21 04:11:36;;;;;;;;;;;;;;;2.32;100.00;100489.09;5072840;28;19924;-66
2021/03/21 04:14:07;;;;;;;;;;;;;;;2.34;100.00;100481.88;5048240;28;20319;-66
2021/03/21 04:16:35;;;;;;;;;;;;;;;2.36;100.00;100474.59;5093025;28;19933;-66
2021/03/21 04:19:05;;;;;;;;;;;;;;;2.39;100.00;100474.44;5092497;28;19928;-66
2021/03/21 04:21:35;;;;;;;;;;;;;;;2.42;100.00;100476.97;5074801;28;19927;-66
2021/03/21 04:24:02;;;;;;;;;;;;;;;2.45;100.00;100466.09;5074400;28;19924;-66
2021/03/21 04:26:32;;;;;;;;;;;;;;;2.48;100.00;100465.91;5093059;28;19928;-67
2021/03/21 04:29:01;;;;;;;;;;;;;;;2.49;100.00;100464.13;5092290;28;20518;-66
2021/03/21 04:31:28;;;;;;;;;;;;;;;2.53;100.00;100456.81;5092885;28;19931;-66
2021/03/21 04:33:57;;;;;;;;;;;;;;;2.54;100.00;100453.16;5092512;28;19924;-66
2021/03/21 04:36:25;;;;;;;;;;;;;;;2.54;100.00;100442.44;5092804;28;19924;-66
2021/03/21 04:38:53;;;;;;;;;;;;;;;2.54;100.00;100442.44;5073849;28;20345;-67
2021/03/21 04:41:22;;;;;;;;;;;;;;;2.58;100.00;100435.97;5074402;28;19948;-66
2021/03/21 04:43:51;;;;;;;;;;;;;;;2.58;100.00;100435.97;5092216;28;19924;-66
2021/03/21 04:46:22;;;;;;;;;;;;;;;2.60;100.00;100431.41;5092431;28;19928;-67
2021/03/21 04:48:47;;;;;;;;;;;;;;;2.60;100.00;100431.41;5092118;28;20023;-66
2021/03/21 04:51:16;;;;;;;;;;;;;;;2.62;100.00;100433.06;5092293;28;19939;-65
2021/03/21 04:53:44;;;;;;;;;;;;;;;2.64;100.00;100433.81;5092313;28;20397;-65
2021/03/21 04:56:14;;;;;;;;;;;;;;;2.65;100.00;100427.53;5092162;28;19928;-65
2021/03/21 04:58:41;;;;;;;;;;;;;;;2.66;100.00;100425.72;5091860;28;19924;-65
2021/03/21 05:01:10;;;;;;;;;;;;;;;2.68;100.00;100423.81;5073978;28;20406;-66
2021/03/21 05:03:38;;;;;;;;;;;;;;;2.68;100.00;100426.50;5091498;28;20015;-66
2021/03/21 05:06:06;;;;;;;;;;;;;;;2.71;100.00;100423.66;5091953;28;19969;-66
2021/03/21 05:08:34;;;;;;;;;;;;;;;2.72;100.00;100416.50;5091834;28;19928;-66
2021/03/21 05:11:03;;;;;;;;;;;;;;;2.75;100.00;100410.97;5091779;28;19931;-66
2021/03/21 05:13:30;;;;;;;;;;;;;;;2.76;100.00;100421.59;5091701;28;19931;-66
2021/03/21 05:15:59;;;;;;;;;;;;;;;2.78;100.00;100419.72;5091743;28;19959;-66
2021/03/21 05:18:30;;;;;;;;;;;;;;;2.82;100.00;100426.63;5091294;28;19924;-68
2021/03/21 05:21:02;;;;;;;;;;;;;;;2.82;100.00;100407.88;5091547;28;19924;-66
2021/03/21 05:23:32;;;;;;;;;;;;;;;2.85;100.00;100420.25;5091327;28;20392;-66
2021/03/21 05:26:01;;;;;;;;;;;;;;;2.85;100.00;100409.53;5091469;28;19968;-66
2021/03/21 05:28:38;;;;;;;;;;;;;;;2.88;100.00;100411.16;5072881;28;19985;-66
2021/03/21 05:31:04;;;;;;;;;;;;;;;2.89;100.00;100404.88;5084978;28;19928;-66
2021/03/21 05:33:30;;;;;;;;;;;;;;;2.92;100.00;100404.69;5071411;28;19924;-65
2021/03/21 05:35:58;;;;;;;;;;;;;;;2.95;100.00;100407.19;5070832;28;19924;-67
2021/03/21 05:38:30;;;;;;;;;;;;;;;2.95;100.00;100405.41;5070938;28;19931;-67
2021/03/21 05:41:12;;;;;;;;;;;;;;;2.99;100.00;100404.28;5071007;28;19924;-67
2021/03/21 05:44:02;;;;;;;;;;;;;;;3.01;100.00;100398.81;5070879;28;19924;-66
2021/03/21 05:46:48;;;;;;;;;;;;;;;3.07;100.00;100392.25;5070932;28;19974;-66
2021/03/21 05:49:23;;;;;;;;;;;;;;;3.10;100.00;100392.97;5070700;28;19994;-67
2021/03/21 05:52:09;;;;;;;;;;;;;;;3.15;100.00;100390.88;5070903;28;19963;-66
2021/03/21 05:54:53;;;;;;;;;;;;;;;3.19;100.00;100391.56;5070974;28;19928;-66
2021/03/21 05:57:47;;;;;;;;;;;;;;;3.25;100.00;100385.00;5057405;28;19981;-67
2021/03/21 06:00:33;;;;;;;;;;;;;;;3.29;100.00;100383.88;5070621;28;19924;-66
2021/03/21 06:03:20;;;;;;;;;;;;;;;3.29;100.00;100384.75;5071076;28;19935;-66
2021/03/21 06:06:04;;;;;;;;;;;;;;;3.31;100.00;100380.16;5052887;28;19924;-66
2021/03/21 06:08:54;;;;;;;;;;;;;;;3.32;100.00;100381.88;5070449;28;20021;-66
2021/03/21 06:11:31;;;;;;;;;;;;;;;3.35;100.00;100387.09;5049849;28;19931;-66
2021/03/21 06:14:06;;;;;;;;;;;;;;;3.37;100.00;100386.09;5058413;28;20048;-66
2021/03/21 06:16:49;;;;;;;;;;;;;;;3.36;100.00;100379.88;5052737;28;19928;-66
2021/03/21 06:19:26;;;;;;;;;;;;;;;3.38;100.00;100380.69;5063694;28;19975;-66
2021/03/21 06:22:03;;;;;;;;;;;;;;;3.41;100.00;100375.13;5070690;28;20027;-65
2021/03/21 06:24:39;;;;;;;;;;;;;;;3.44;100.00;100374.94;5052542;28;20358;-65
2021/03/21 06:27:09;;;;;;;;;;;;;;;3.44;100.00;100377.63;5049898;28;19925;-65
2021/03/21 06:29:50;;;;;;;;;;;;;;;3.45;100.00;100376.69;5068327;28;19931;-65
2021/03/21 06:32:20;;;;;;;;;;;;;;;3.47;100.00;100377.44;5070298;28;19931;-65
2021/03/21 06:34:50;;;;;;;;;;;;;;;3.49;100.00;100372.88;5051406;28;19924;-65
2021/03/21 06:37:24;;;;;;;;;;;;;;;3.54;100.00;100359.19;5067049;28;19978;-64
2021/03/21 06:40:17;;;;;;;;;;;;;;;3.56;100.00;100345.69;5070039;28;19974;-65
2021/03/21 06:42:53;;;;;;;;;;;;;;;3.61;100.00;100359.72;5029620;28;19977;-64
2021/03/21 06:45:35;;;;;;;;;;;;;;;3.65;100.00;100355.88;5053507;28;19925;-64
2021/03/21 06:48:15;;;;;;;;;;;;;;;3.67;100.00;100345.91;5054060;28;19925;-65
2021/03/21 06:50:53;;;;;;;;;;;;;;;3.73;100.00;100353.63;5054403;28;20314;-65
2021/03/21 06:53:25;;;;;;;;;;;;;;;3.80;100.00;100344.25;5054256;28;19925;-65
2021/03/21 06:55:53;;;;;;;;;;;;;;;3.87;100.00;100336.69;5070486;28;19925;-65
2021/03/21 06:58:28;;;;;;;;;;;;;;;3.92;100.00;100341.78;5051842;28;19924;-65
2021/03/21 07:01:11;;;;;;;;;;;;;;;3.95;100.00;100336.22;5066116;28;19925;-66
2021/03/21 07:03:51;;;;;;;;;;;;;;;4.00;100.00;100329.63;5073385;28;19962;-65
2021/03/21 07:06:38;;;;;;;;;;;;;;;4.07;100.00;100340.84;5073102;28;20351;-65
2021/03/21 07:09:07;;;;;;;;;;;;;;;4.09;100.00;100335.38;5071955;28;19924;-65
2021/03/21 07:11:46;;;;;;;;;;;;;;;4.12;100.00;100338.75;5061031;28;20627;-65
2021/03/21 07:14:31;;;;;;;;;;;;;;;4.16;100.00;100336.75;5082044;28;20417;-65
2021/03/21 07:17:29;;;;;;;;;;;;;;;4.18;100.00;100329.47;5066434;28;20013;-64
2021/03/21 07:20:17;;;;;;;;;;;;;;;4.17;100.00;100336.66;5053084;28;19925;-65
2021/03/21 07:23:02;;;;;;;;;;;;;;;4.17;100.00;100331.28;5057436;28;19929;-65
2021/03/21 07:25:43;;;;;;;;;;;;;;;4.19;100.00;100328.50;5053367;28;19925;-65
2021/03/21 07:28:19;;;;;;;;;;;;;;;4.16;100.00;100328.72;5069340;28;19951;-65
2021/03/21 07:30:52;;;;;;;;;;;;;;;4.15;100.00;100332.34;5073581;28;19925;-65
2021/03/21 07:33:26;;;;;;;;;;;;;;;4.19;100.00;100334.72;5070705;28;20278;-65
2021/03/21 07:35:56;;;;;;;;;;;;;;;4.22;100.00;100338.22;5073464;28;19928;-65
2021/03/21 07:38:30;;;;;;;;;;;;;;;4.28;100.00;100340.53;5059529;28;19924;-65
2021/03/21 07:41:01;;;;;;;;;;;;;;;4.39;100.00;100340.72;5052957;28;19925;-65
2021/03/21 07:43:48;;;;;;;;;;;;;;;4.41;100.00;100336.13;5069977;28;19925;-65
2021/03/21 07:46:30;;;;;;;;;;;;;;;4.46;100.00;100331.34;5060285;28;19975;-65
2021/03/21 07:49:14;;;;;;;;;;;;;;;4.57;100.00;100333.34;5072923;28;19931;-64
2021/03/21 07:51:52;;;;;;;;;;;;;;;4.63;100.00;100327.56;5072491;28;19928;-65
2021/03/21 07:54:34;;;;;;;;;;;;;;;4.67;100.00;100328.25;5053086;28;20042;-65
2021/03/21 07:57:03;;;;;;;;;;;;;;;4.81;100.00;100330.06;5053234;28;19968;-65
2021/03/21 07:59:32;;;;;;;;;;;;;;;4.93;100.00;100328.41;5072578;28;19981;-65
2021/03/21 08:01:58;;;;;;;;;;;;;;;4.96;100.00;100322.88;5072899;28;19977;-65
2021/03/21 08:04:27;;;;;;;;;;;;;;;4.90;100.00;100309.81;5053395;28;19924;-65
2021/03/21 08:06:57;;;;;;;;;;;;;;;4.94;100.00;100309.47;5052666;28;19924;-65
2021/03/21 08:09:27;;;;;;;;;;;;;;;4.99;100.00;100318.13;5058228;28;19978;-65
2021/03/21 08:11:57;;;;;;;;;;;;;;;4.96;100.00;100323.72;5049210;28;20418;-65
2021/03/21 08:14:27;;;;;;;;;;;;;;;4.89;100.00;100314.31;5041284;28;19931;-65
2021/03/21 08:16:54;;;;;;;;;;;;;;;4.88;100.00;100307.22;5071354;28;19964;-65
2021/03/21 08:19:22;;;;;;;;;;;;;;;4.89;100.00;100317.00;5072227;28;19925;-65
2021/03/21 08:21:48;;;;;;;;;;;;;;;4.85;100.00;100308.28;5053253;28;20352;-65
2021/03/21 08:24:17;;;;;;;;;;;;;;;4.92;100.00;100310.53;5072580;28;20374;-65
2021/03/21 08:26:43;;;;;;;;;;;;;;;5.00;100.00;100308.25;5036296;28;20416;-64
2021/03/21 08:29:11;;;;;;;;;;;;;;;5.05;100.00;100311.50;5055934;28;19932;-65
2021/03/21 08:31:39;;;;;;;;;;;;;;;5.15;100.00;100307.25;5042352;28;19932;-65
2021/03/21 08:34:38;;;;;;;;;;;;;;;5.36;100.00;100301.44;5061618;28;19970;-65
2021/03/21 08:37:13;;;;;;;;;;;;;;;5.50;100.00;100308.56;5059157;28;20225;-65
2021/03/21 08:39:40;;;;;;;;;;;;;;;5.51;100.00;100300.38;5052050;28;20023;-65
2021/03/21 08:42:21;;;;;;;;;;;;;;;5.74;100.00;100313.28;5064602;28;19929;-65
2021/03/21 08:44:47;;;;;;;;;;;;;;;6.00;100.00;100303.47;5071353;28;19932;-65
2021/03/21 08:47:16;;;;;;;;;;;;;;;6.50;100.00;100298.19;5055817;28;19990;-65
2021/03/21 08:49:45;;;;;;;;;;;;;;;7.34;100.00;100280.38;5063197;28;19929;-66
2021/03/21 08:52:26;;;;;;;;;;;;;;;7.32;100.00;100276.06;5064191;28;19932;-66
2021/03/21 08:54:52;;;;;;;;;;;;;;;7.02;100.00;100286.31;5052025;28;20416;-65
2021/03/21 08:57:28;;;;;;;;;;;;;;;6.90;100.00;100286.38;5052094;28;20232;-66
2021/03/21 09:00:12;;;;;;;;;;;;;;;6.69;100.00;100278.84;5064918;28;19924;-66
2021/03/21 09:02:39;;;;;;;;;;;;;;;6.23;100.00;100291.09;5056129;28;19932;-65
2021/03/21 09:05:06;;;;;;;;;;;;;;;5.98;100.00;100300.00;5059602;28;19928;-66
2021/03/21 09:07:34;;;;;;;;;;;;;;;5.65;100.00;100307.56;5071446;28;20233;-66
2021/03/21 09:10:15;;;;;;;;;;;;;;;5.46;100.00;100310.59;5069563;28;19929;-65
2021/03/21 09:12:41;;;;;;;;;;;;;;;5.43;100.00;100337.72;5069332;28;19931;-65
2021/03/21 09:15:26;;;;;;;;;;;;;;;5.24;100.00;100332.69;5053611;28;19928;-66
2021/03/21 09:18:06;;;;;;;;;;;;;;;5.31;100.00;100322.41;5067552;28;20003;-65
2021/03/21 09:20:33;;;;;;;;;;;;;;;5.28;100.00;100334.22;5069704;28;19936;-65
2021/03/21 09:23:07;;;;;;;;;;;;;;;5.41;100.00;100334.28;5067391;28;20350;-66
2021/03/21 09:25:33;;;;;;;;;;;;;;;5.46;100.00;100329.44;5058182;28;19924;-66
2021/03/21 09:27:59;;;;;;;;;;;;;;;5.46;100.00;100347.44;5068117;28;20451;-66
2021/03/21 09:30:31;;;;;;;;;;;;;;;5.46;100.00;100336.66;5071018;28;19925;-65
2021/03/21 09:32:59;;;;;;;;;;;;;;;5.57;100.00;100338.66;5050953;28;20428;-65
2021/03/21 09:35:34;;;;;;;;;;;;;;;5.70;100.00;100342.25;5050595;28;19928;-65
2021/03/21 09:38:03;;;;;;;;;;;;;;;5.84;100.00;100346.72;5050433;28;20018;-65
2021/03/21 09:40:31;;;;;;;;;;;;;;;5.92;100.00;100348.88;5032912;28;19932;-65
2021/03/21 09:42:58;;;;;;;;;;;;;;;6.22;100.00;100347.78;5050223;28;19925;-66
2021/03/21 09:45:24;;;;;;;;;;;;;;;6.16;100.00;100346.38;5069154;28;19933;-66
2021/03/21 09:47:53;;;;;;;;;;;;;;;6.40;100.00;100349.22;5063396;28;19924;-66
2021/03/21 09:50:30;;;;;;;;;;;;;;;6.33;100.00;100343.38;5082486;28;19925;-68
2021/03/21 09:53:06;;;;;;;;;;;;;;;6.43;100.00;100358.94;5047332;28;19938;-67
2021/03/21 09:55:38;;;;;;;;;;;;;;;6.26;100.00;100343.91;5070715;28;19946;-67
2021/03/21 09:58:34;;;;;;;;;;;;;;;6.29;100.00;100365.25;5076267;28;19924;-67
2021/03/21 10:01:04;;;;;;;;;;;;;;;6.14;100.00;100369.88;5091110;28;20012;-66
2021/03/21 10:03:32;;;;;;;;;;;;;;;5.91;100.00;100363.34;5072323;28;19928;-67
2021/03/21 10:06:02;;;;;;;;;;;;;;;5.81;100.00;100368.47;5090840;28;19924;-67
2021/03/21 10:08:36;;;;;;;;;;;;;;;5.86;100.00;100377.94;5090754;28;20021;-66
2021/03/21 10:11:04;;;;;;;;;;;;;;;5.61;100.00;100369.78;5090702;28;20472;-67
2021/03/21 10:13:31;;;;;;;;;;;;;;;5.49;100.00;100374.16;5091095;28;19925;-66
2021/03/21 10:16:16;;;;;;;;;;;;;;;5.49;100.00;100387.59;5093737;28;19924;-66
2021/03/21 10:18:42;;;;;;;;;;;;;;;5.50;100.00;100398.28;5074997;28;19978;-66
2021/03/21 10:21:09;;;;;;;;;;;;;;;5.47;100.00;100389.56;5056442;28;19935;-66
2021/03/21 10:24:02;;;;;;;;;;;;;;;5.50;100.00;100398.28;5071422;28;20031;-66
2021/03/21 10:26:29;;;;;;;;;;;;;;;5.34;100.00;100397.56;5074366;28;19943;-66
2021/03/21 10:28:55;;;;;;;;;;;;;;;5.43;100.00;100398.78;5074019;28;20305;-66
2021/03/21 10:31:36;;;;;;;;;;;;;;;5.42;100.00;100414.06;5074639;28;19924;-66
2021/03/21 10:34:21;;;;;;;;;;;;;;;5.44;100.00;100409.47;5074565;28;20015;-66
2021/03/21 10:36:48;;;;;;;17.83;4.60;;;;;;;5.67;100.00;100417.88;5073236;28;20900;-66
2021/03/21 10:39:59;;;;;;;18.45;5.05;;;;;;;5.93;100.00;100410.72;5072405;28;20411;-66
2021/03/21 10:43:00;;;;;;;19.13;5.28;;;;;;;6.07;100.00;100401.78;5072540;28;20419;-66
2021/03/21 10:45:46;;;;;;;19.63;5.65;;;;;;;6.10;100.00;100406.94;4991078;28;20867;-66
2021/03/21 10:48:49;;;;;;;20.70;5.57;;;;;;;6.25;100.00;100421.22;4990440;28;20490;-66
2021/03/21 10:51:16;;;;;;;22.08;5.28;;;;;;;6.36;100.00;100428.59;5057490;28;20451;-66
2021/03/21 10:54:24;;;;;;;16.67;4.97;;;;;;;6.28;100.00;100429.09;5068414;28;20431;-67
2021/03/21 10:57:33;;;;;;;19.52;5.70;;;;;;;6.10;100.00;100416.88;5068019;28;20427;-67
2021/03/21 11:00:15;;;;;;;19.80;5.20;;;;;;;5.78;100.00;100436.00;5051713;28;20417;-67
2021/03/21 11:02:42;;;;;;;;;;;;;;;5.49;100.00;100438.75;5044331;28;20429;-68
2021/03/21 11:05:21;;;;;;;;;;;;;;;5.30;100.00;100439.09;5053197;28;20030;-67
2021/03/21 11:07:48;;;;;;;;;;;;;;;5.15;100.00;100457.06;5053954;28;19966;-68
2021/03/21 11:10:14;;;;;;;;;;;;;;;5.01;100.00;100456.13;5053280;28;19932;-68
2021/03/21 11:12:41;;;;;;;;;;;;;;;4.98;100.00;100461.69;5053440;28;19925;-68
2021/03/21 11:15:17;;;;;;;;;;;;;;;5.09;100.00;100477.16;5068679;28;19960;-69
2021/03/21 11:17:43;;;;;;;;;;;;;;;5.23;100.00;100464.69;5083245;28;19920;-68
2021/03/21 11:20:22;;;;;;;;;;;;;;;5.26;100.00;100459.94;5093649;28;19923;-68
2021/03/21 11:22:47;;;;;;;;;;;;;;;5.16;100.00;100466.88;5075521;28;19940;-69
2021/03/21 11:25:14;;;;;;;;;;;;;;;5.32;100.00;100472.16;5073418;28;20429;-67
2021/03/21 11:27:47;;;;;;;;;;;;;;;5.35;100.00;100463.88;5071825;28;20358;-68
2021/03/21 11:30:15;;;;;;;;;;;;;;;5.38;100.00;100469.06;5072530;28;19936;-68
2021/03/21 11:32:41;;;;;;;;;;;;;;;5.31;100.00;100467.75;5055128;28;19959;-68
2021/03/21 11:35:09;;;;;;;;;;;;;;;5.34;100.00;100457.66;5072628;28;19953;-68
2021/03/21 11:37:36;;;;;;;;;;;;;;;5.39;100.00;100451.97;5055398;28;19967;-68
2021/03/21 11:40:05;;;;;;;;;;;;;;;5.50;100.00;100462.88;5053076;28;19925;-68
2021/03/21 11:42:33;;;;;;;;;;;;;;;5.65;100.00;100458.38;5049822;28;19967;-68
2021/03/21 11:45:18;;;;;;;;;;;;;;;5.73;100.00;100457.00;5073052;28;19931;-68
2021/03/21 11:47:45;;;;;;;;;;;;;;;5.82;100.00;100453.69;5055563;28;20022;-68
2021/03/21 11:50:15;;;;;;;;;;;;;;;5.94;100.00;100460.97;5053274;28;19920;-69
2021/03/21 11:52:41;;;;;;;;;;;;;;;5.96;100.00;100463.56;5069971;28;19920;-69
2021/03/21 11:55:08;;;;;;;;;;;;;;;5.95;100.00;100467.25;5072994;28;20416;-69
2021/03/21 11:57:43;;;;;;;;;;;;;;;5.87;100.00;100460.50;5057887;28;19925;-69
2021/03/21 12:00:14;;;;;;;;;;;;;;;6.09;100.00;100471.72;5064725;28;20000;-69
2021/03/21 12:02:45;;;;;;;;;;;;;;;6.15;100.00;100453.31;5073420;28;19920;-69
2021/03/21 12:05:13;;;;;;;;;;;;;;;6.56;100.00;100462.28;5061574;28;19926;-69
2021/03/21 12:07:38;;;;;;;;;;;;;;;6.73;100.00;100449.44;5053285;28;20344;-69
2021/03/21 12:10:05;;;;;;;;;;;;;;;6.57;100.00;100452.34;5022256;28;20015;-69
2021/03/21 12:12:33;;;;;;;;;;;;;;;6.71;100.00;100452.25;5066854;28;19929;-70
2021/03/21 12:15:00;;;;;;;;;;;;;;;6.98;100.00;100454.00;5073263;28;19983;-69
2021/03/21 12:17:41;;;;;;;;;;;;;;;7.28;100.00;100453.66;5072365;28;19921;-69
2021/03/21 12:20:26;;;;;;;;;;;;;;;7.38;100.00;100462.81;5070574;28;19930;-69
2021/03/21 12:22:52;;;;;;;;;;;;;;;7.38;100.00;100459.25;5062127;28;19931;-68
2021/03/21 12:25:20;;;;;;;;;;;;;;;7.34;100.00;100447.78;5052992;28;19921;-69
2021/03/21 12:27:46;;;;;;;;;;;;;;;7.59;100.00;100462.22;5045074;28;20266;-69
2021/03/21 12:30:17;;;;;;;;;;;;;;;7.46;100.00;100458.69;5072694;28;19931;-69
2021/03/21 12:32:43;;;;;;;;;;;;;;;7.64;100.00;100462.78;5063238;28;19932;-69
2021/03/21 12:35:11;;;;;;;;;;;;;;;8.30;100.00;100448.00;5052811;28;19931;-69
2021/03/21 12:37:51;;;;;;;;;;;;;;;9.21;100.00;100449.94;5060385;28;19920;-70
2021/03/21 12:40:19;;;;;;;;;;;;;;;9.84;100.00;100454.81;5071775;28;20389;-69
2021/03/21 12:42:46;;;;;;;;;;;;;;;10.21;100.00;100451.75;5063722;28;19927;-70
2021/03/21 12:45:17;;;;;;;;;;;;;;;10.54;100.00;100447.19;5063771;28;20285;-70
2021/03/21 12:47:44;;;;;;;;;;;;;;;11.39;100.00;100442.53;5064346;28;19921;-70
2021/03/21 12:50:31;;;;;;;;;;;;;;;11.22;100.00;100418.72;5055215;28;19921;-70
2021/03/21 12:52:57;;;;;;;;;;;;;;;11.46;100.00;100442.84;5055149;28;19921;-70
2021/03/21 12:55:23;;;;;;;;;;;;;;;12.20;100.00;100417.13;5064542;28;19932;-70
2021/03/21 12:57:51;;;;;;;;;;;;;;;11.48;100.00;100429.97;5053660;28;20012;-70